sensor_id;sensor_type;location;lat;lon;timestamp;P1;durP1;ratioP1;P2;durP2;ratioP2
26824;SDS011;14402;48.178;11.566;2023-04-01T00:00:25;0.8;;;0.3;;
26824;SDS011;14402;48.178;11.566;2023-04-01T00:00:56;0.8;;;0.3;;
26824;SDS011;14402;48.178;11.566;2023-04-01T00:01:26;0.8;;;0.3;;
26824;SDS011;14402;48.178;11.566;2023-04-01T00:01:56;0.6;;;0.2;;
26824;SDS011;14402;48.178;11.566;2023-04-01T00:02:26;0.4;;;0.2;;
26824;SDS011;14402;48.178;11.566;2023-04-01T00:02:56;0.4;;;0.2;;
26824;SDS011;14402;48.178;11.566;2023-04-01T00:03:26;0.4;;;0.2;;
26824;SDS011;14402;48.178;11.566;2023-04-01T00:03:56;0.9;;;0.2;;
26824;SDS011;14402;48.178;11.566;2023-04-01T00:04:26;1.4;;;0.3;;
26824;SDS011;14402;48.178;11.566;2023-04-01T00:04:56;1.4;;;0.3;;
26824;SDS011;14402;48.178;11.566;2023-04-01T00:05:26;1.4;;;0.3;;
26824;SDS011;14402;48.178;11.566;2023-04-01T00:05:57;1.1;;;0.3;;
26824;SDS011;14402;48.178;11.566;2023-04-01T00:06:27;0.9;;;0.3;;
26824;SDS011;14402;48.178;11.566;2023-04-01T00:06:57;0.9;;;0.3;;
26824;SDS011;14402;48.178;11.566;2023-04-01T00:07:27;0.9;;;0.3;;
26824;SDS011;14402;48.178;11.566;2023-04-01T00:07:57;0.9;;;0.4;;
26824;SDS011;14402;48.178;11.566;2023-04-01T00:08:27;0.9;;;0.4;;
26824;SDS011;14402;48.178;11.566;2023-04-01T00:08:57;0.9;;;0.4;;
26824;SDS011;14402;48.178;11.566;2023-04-01T00:09:27;0.9;;;0.4;;
26824;SDS011;14402;48.178;11.566;2023-04-01T00:09:57;1.1;;;0.4;;
26824;SDS011;14402;48.178;11.566;2023-04-01T00:10:27;1.3;;;0.5;;
26824;SDS011;14402;48.178;11.566;2023-04-01T00:10:57;1.3;;;0.5;;
26824;SDS011;14402;48.178;11.566;2023-04-01T00:11:27;1.3;;;0.5;;
26824;SDS011;14402;48.178;11.566;2023-04-01T00:11:57;1.5;;;0.6;;
26824;SDS011;14402;48.178;11.566;2023-04-01T00:12:28;1.8;;;0.7;;
26824;SDS011;14402;48.178;11.566;2023-04-01T00:12:58;1.8;;;0.7;;
26824;SDS011;14402;48.178;11.566;2023-04-01T00:13:28;1.8;;;0.7;;
26824;SDS011;14402;48.178;11.566;2023-04-01T00:13:58;1.5;;;0.5;;
26824;SDS011;14402;48.178;11.566;2023-04-01T00:14:28;1.3;;;0.3;;
26824;SDS011;14402;48.178;11.566;2023-04-01T00:14:58;1.3;;;0.3;;
26824;SDS011;14402;48.178;11.566;2023-04-01T00:15:28;1.3;;;0.3;;
26824;SDS011;14402;48.178;11.566;2023-04-01T00:15:58;1.3;;;0.3;;
26824;SDS011;14402;48.178;11.566;2023-04-01T00:16:28;1.3;;;0.3;;
26824;SDS011;14402;48.178;11.566;2023-04-01T00:16:58;1.3;;;0.3;;
26824;SDS011;14402;48.178;11.566;2023-04-01T00:17:30;1.3;;;0.3;;
26824;SDS011;14402;48.178;11.566;2023-04-01T00:17:59;1.4;;;0.4;;
26824;SDS011;14402;48.178;11.566;2023-04-01T00:18:29;1.5;;;0.4;;
26824;SDS011;14402;48.178;11.566;2023-04-01T00:18:59;1.5;;;0.4;;
26824;SDS011;14402;48.178;11.566;2023-04-01T00:19:29;1.5;;;0.4;;
26824;SDS011;14402;48.178;11.566;2023-04-01T00:19:59;1.6;;;0.4;;
26824;SDS011;14402;48.178;11.566;2023-04-01T00:20:29;1.8;;;0.4;;
26824;SDS011;14402;48.178;11.566;2023-04-01T00:20:59;1.8;;;0.4;;
26824;SDS011;14402;48.178;11.566;2023-04-01T00:21:29;1.8;;;0.4;;
26824;SDS011;14402;48.178;11.566;2023-04-01T00:21:59;1.9;;;0.4;;
26824;SDS011;14402;48.178;11.566;2023-04-01T00:22:29;2.0;;;0.3;;
26824;SDS011;14402;48.178;11.566;2023-04-01T00:22:59;2.0;;;0.3;;
26824;SDS011;14402;48.178;11.566;2023-04-01T00:23:30;2.0;;;0.3;;
26824;SDS011;14402;48.178;11.566;2023-04-01T00:24:00;1.6;;;0.4;;
26824;SDS011;14402;48.178;11.566;2023-04-01T00:24:30;1.2;;;0.4;;
26824;SDS011;14402;48.178;11.566;2023-04-01T00:25:00;1.2;;;0.4;;
26824;SDS011;14402;48.178;11.566;2023-04-01T00:25:30;1.2;;;0.4;;
26824;SDS011;14402;48.178;11.566;2023-04-01T00:26:00;1.6;;;0.4;;
26824;SDS011;14402;48.178;11.566;2023-04-01T00:26:30;2.1;;;0.4;;
26824;SDS011;14402;48.178;11.566;2023-04-01T00:27:00;2.1;;;0.4;;
26824;SDS011;14402;48.178;11.566;2023-04-01T00:27:30;2.1;;;0.4;;
26824;SDS011;14402;48.178;11.566;2023-04-01T00:28:00;1.6;;;0.4;;
26824;SDS011;14402;48.178;11.566;2023-04-01T00:28:30;1.1;;;0.4;;
26824;SDS011;14402;48.178;11.566;2023-04-01T00:29:00;1.1;;;0.4;;
26824;SDS011;14402;48.178;11.566;2023-04-01T00:29:31;1.1;;;0.4;;
26824;SDS011;14402;48.178;11.566;2023-04-01T00:30:01;1.4;;;0.5;;
26824;SDS011;14402;48.178;11.566;2023-04-01T00:30:31;1.7;;;0.6;;
26824;SDS011;14402;48.178;11.566;2023-04-01T00:31:03;1.7;;;0.6;;
26824;SDS011;14402;48.178;11.566;2023-04-01T00:31:31;1.7;;;0.6;;
26824;SDS011;14402;48.178;11.566;2023-04-01T00:32:01;1.8;;;0.5;;
26824;SDS011;14402;48.178;11.566;2023-04-01T00:32:31;1.9;;;0.4;;
26824;SDS011;14402;48.178;11.566;2023-04-01T00:33:01;1.9;;;0.4;;
26824;SDS011;14402;48.178;11.566;2023-04-01T00:33:31;1.9;;;0.4;;
26824;SDS011;14402;48.178;11.566;2023-04-01T00:34:01;1.8;;;0.4;;
26824;SDS011;14402;48.178;11.566;2023-04-01T00:34:31;1.7;;;0.5;;
26824;SDS011;14402;48.178;11.566;2023-04-01T00:35:02;1.7;;;0.5;;
26824;SDS011;14402;48.178;11.566;2023-04-01T00:35:32;1.7;;;0.5;;
26824;SDS011;14402;48.178;11.566;2023-04-01T00:36:05;1.4;;;0.5;;
26824;SDS011;14402;48.178;11.566;2023-04-01T00:36:32;1.0;;;0.5;;
26824;SDS011;14402;48.178;11.566;2023-04-01T00:37:02;1.0;;;0.5;;
26824;SDS011;14402;48.178;11.566;2023-04-01T00:37:34;1.0;;;0.5;;
26824;SDS011;14402;48.178;11.566;2023-04-01T00:38:02;1.5;;;0.4;;
26824;SDS011;14402;48.178;11.566;2023-04-01T00:38:32;1.9;;;0.4;;
26824;SDS011;14402;48.178;11.566;2023-04-01T00:39:02;1.9;;;0.4;;
26824;SDS011;14402;48.178;11.566;2023-04-01T00:39:33;1.9;;;0.4;;
26824;SDS011;14402;48.178;11.566;2023-04-01T00:40:03;1.6;;;0.4;;
26824;SDS011;14402;48.178;11.566;2023-04-01T00:40:33;1.3;;;0.4;;
26824;SDS011;14402;48.178;11.566;2023-04-01T00:41:03;1.3;;;0.4;;
26824;SDS011;14402;48.178;11.566;2023-04-01T00:41:33;1.3;;;0.4;;
26824;SDS011;14402;48.178;11.566;2023-04-01T00:42:03;1.6;;;0.4;;
26824;SDS011;14402;48.178;11.566;2023-04-01T00:42:33;2.0;;;0.3;;
26824;SDS011;14402;48.178;11.566;2023-04-01T00:43:03;2.0;;;0.3;;
26824;SDS011;14402;48.178;11.566;2023-04-01T00:43:33;2.0;;;0.3;;
26824;SDS011;14402;48.178;11.566;2023-04-01T00:44:19;1.6;;;0.3;;
26824;SDS011;14402;48.178;11.566;2023-04-01T00:44:33;1.2;;;0.3;;
26824;SDS011;14402;48.178;11.566;2023-04-01T00:45:23;1.2;;;0.3;;
26824;SDS011;14402;48.178;11.566;2023-04-01T00:45:34;1.2;;;0.3;;
26824;SDS011;14402;48.178;11.566;2023-04-01T00:46:03;1.0;;;0.3;;
26824;SDS011;14402;48.178;11.566;2023-04-01T00:46:33;0.8;;;0.3;;
26824;SDS011;14402;48.178;11.566;2023-04-01T00:47:04;0.8;;;0.3;;
26824;SDS011;14402;48.178;11.566;2023-04-01T00:47:34;0.8;;;0.3;;
26824;SDS011;14402;48.178;11.566;2023-04-01T00:48:04;1.5;;;0.4;;
26824;SDS011;14402;48.178;11.566;2023-04-01T00:48:34;2.2;;;0.5;;
26824;SDS011;14402;48.178;11.566;2023-04-01T00:49:04;2.2;;;0.5;;
26824;SDS011;14402;48.178;11.566;2023-04-01T00:49:34;2.2;;;0.5;;
26824;SDS011;14402;48.178;11.566;2023-04-01T00:50:04;1.5;;;0.4;;
26824;SDS011;14402;48.178;11.566;2023-04-01T00:50:34;0.8;;;0.3;;
26824;SDS011;14402;48.178;11.566;2023-04-01T00:51:05;0.8;;;0.3;;
26824;SDS011;14402;48.178;11.566;2023-04-01T00:51:34;0.8;;;0.3;;
26824;SDS011;14402;48.178;11.566;2023-04-01T00:52:05;1.1;;;0.4;;
26824;SDS011;14402;48.178;11.566;2023-04-01T00:52:34;1.5;;;0.5;;
26824;SDS011;14402;48.178;11.566;2023-04-01T00:53:05;1.5;;;0.5;;
26824;SDS011;14402;48.178;11.566;2023-04-01T00:53:36;1.5;;;0.5;;
26824;SDS011;14402;48.178;11.566;2023-04-01T00:54:05;1.5;;;0.4;;
26824;SDS011;14402;48.178;11.566;2023-04-01T00:54:35;1.4;;;0.4;;
26824;SDS011;14402;48.178;11.566;2023-04-01T00:55:05;1.4;;;0.4;;
26824;SDS011;14402;48.178;11.566;2023-04-01T00:55:35;1.4;;;0.4;;
26824;SDS011;14402;48.178;11.566;2023-04-01T00:56:05;1.1;;;0.4;;
26824;SDS011;14402;48.178;11.566;2023-04-01T00:56:36;0.9;;;0.3;;
26824;SDS011;14402;48.178;11.566;2023-04-01T00:57:06;0.9;;;0.3;;
26824;SDS011;14402;48.178;11.566;2023-04-01T00:57:35;0.9;;;0.3;;
26824;SDS011;14402;48.178;11.566;2023-04-01T00:58:07;1.0;;;0.4;;
26824;SDS011;14402;48.178;11.566;2023-04-01T00:58:37;1.2;;;0.5;;
26824;SDS011;14402;48.178;11.566;2023-04-01T00:59:06;1.2;;;0.5;;
26824;SDS011;14402;48.178;11.566;2023-04-01T00:59:37;1.2;;;0.5;;
26824;SDS011;14402;48.178;11.566;2023-04-01T01:00:06;1.5;;;0.5;;
26824;SDS011;14402;48.178;11.566;2023-04-01T01:00:36;1.8;;;0.5;;
26824;SDS011;14402;48.178;11.566;2023-04-01T01:01:06;1.8;;;0.5;;
26824;SDS011;14402;48.178;11.566;2023-04-01T01:01:36;1.8;;;0.5;;
26824;SDS011;14402;48.178;11.566;2023-04-01T01:02:07;1.7;;;0.4;;
26824;SDS011;14402;48.178;11.566;2023-04-01T01:02:36;1.6;;;0.4;;
26824;SDS011;14402;48.178;11.566;2023-04-01T01:03:06;1.6;;;0.4;;
26824;SDS011;14402;48.178;11.566;2023-04-01T01:03:36;1.6;;;0.4;;
26824;SDS011;14402;48.178;11.566;2023-04-01T01:04:07;1.5;;;0.4;;
26824;SDS011;14402;48.178;11.566;2023-04-01T01:04:37;1.3;;;0.4;;
26824;SDS011;14402;48.178;11.566;2023-04-01T01:05:07;1.3;;;0.4;;
26824;SDS011;14402;48.178;11.566;2023-04-01T01:05:38;1.3;;;0.4;;
26824;SDS011;14402;48.178;11.566;2023-04-01T01:06:10;1.4;;;0.4;;
26824;SDS011;14402;48.178;11.566;2023-04-01T01:06:39;1.5;;;0.5;;
26824;SDS011;14402;48.178;11.566;2023-04-01T01:07:11;1.5;;;0.5;;
26824;SDS011;14402;48.178;11.566;2023-04-01T01:07:38;1.5;;;0.5;;
26824;SDS011;14402;48.178;11.566;2023-04-01T01:08:08;1.8;;;0.5;;
26824;SDS011;14402;48.178;11.566;2023-04-01T01:08:41;2.1;;;0.5;;
26824;SDS011;14402;48.178;11.566;2023-04-01T01:09:10;2.1;;;0.5;;
26824;SDS011;14402;48.178;11.566;2023-04-01T01:09:41;2.1;;;0.5;;
26824;SDS011;14402;48.178;11.566;2023-04-01T01:10:08;1.9;;;0.4;;
26824;SDS011;14402;48.178;11.566;2023-04-01T01:10:38;1.7;;;0.4;;
26824;SDS011;14402;48.178;11.566;2023-04-01T01:11:08;1.7;;;0.4;;
26824;SDS011;14402;48.178;11.566;2023-04-01T01:11:40;1.7;;;0.4;;
26824;SDS011;14402;48.178;11.566;2023-04-01T01:12:10;2.2;;;0.4;;
26824;SDS011;14402;48.178;11.566;2023-04-01T01:12:40;2.7;;;0.4;;
26824;SDS011;14402;48.178;11.566;2023-04-01T01:13:10;2.7;;;0.4;;
26824;SDS011;14402;48.178;11.566;2023-04-01T01:13:40;2.7;;;0.4;;
26824;SDS011;14402;48.178;11.566;2023-04-01T01:14:12;2.5;;;0.5;;
26824;SDS011;14402;48.178;11.566;2023-04-01T01:14:42;2.3;;;0.6;;
26824;SDS011;14402;48.178;11.566;2023-04-01T01:15:11;2.3;;;0.6;;
26824;SDS011;14402;48.178;11.566;2023-04-01T01:15:40;2.3;;;0.6;;
26824;SDS011;14402;48.178;11.566;2023-04-01T01:16:10;1.5;;;0.5;;
26824;SDS011;14402;48.178;11.566;2023-04-01T01:16:40;0.8;;;0.4;;
26824;SDS011;14402;48.178;11.566;2023-04-01T01:17:12;0.8;;;0.4;;
26824;SDS011;14402;48.178;11.566;2023-04-01T01:17:43;0.8;;;0.4;;
26824;SDS011;14402;48.178;11.566;2023-04-01T01:18:09;1.5;;;0.4;;
26824;SDS011;14402;48.178;11.566;2023-04-01T01:18:40;2.2;;;0.5;;
26824;SDS011;14402;48.178;11.566;2023-04-01T01:19:11;2.2;;;0.5;;
26824;SDS011;14402;48.178;11.566;2023-04-01T01:19:48;2.2;;;0.5;;
26824;SDS011;14402;48.178;11.566;2023-04-01T01:23:46;1.7;;;0.6;;
26824;SDS011;14402;48.178;11.566;2023-04-01T01:24:12;1.7;;;0.5;;
26824;SDS011;14402;48.178;11.566;2023-04-01T01:24:43;1.6;;;0.3;;
26824;SDS011;14402;48.178;11.566;2023-04-01T01:25:14;1.6;;;0.3;;
26824;SDS011;14402;48.178;11.566;2023-04-01T01:25:41;1.6;;;0.3;;
26824;SDS011;14402;48.178;11.566;2023-04-01T01:26:15;1.5;;;0.4;;
26824;SDS011;14402;48.178;11.566;2023-04-01T01:27:12;1.5;;;0.4;;
26824;SDS011;14402;48.178;11.566;2023-04-01T01:27:15;1.5;;;0.4;;
26824;SDS011;14402;48.178;11.566;2023-04-01T01:27:41;1.5;;;0.4;;
26824;SDS011;14402;48.178;11.566;2023-04-01T01:28:15;1.3;;;0.4;;
26824;SDS011;14402;48.178;11.566;2023-04-01T01:28:44;1.1;;;0.3;;
26824;SDS011;14402;48.178;11.566;2023-04-01T01:29:13;1.1;;;0.3;;
26824;SDS011;14402;48.178;11.566;2023-04-01T01:29:45;1.1;;;0.3;;
26824;SDS011;14402;48.178;11.566;2023-04-01T01:30:14;1.2;;;0.4;;
26824;SDS011;14402;48.178;11.566;2023-04-01T01:30:42;1.2;;;0.4;;
26824;SDS011;14402;48.178;11.566;2023-04-01T01:31:12;1.2;;;0.4;;
26824;SDS011;14402;48.178;11.566;2023-04-01T01:31:44;1.2;;;0.4;;
26824;SDS011;14402;48.178;11.566;2023-04-01T01:32:15;1.4;;;0.4;;
26824;SDS011;14402;48.178;11.566;2023-04-01T01:32:53;1.6;;;0.4;;
26824;SDS011;14402;48.178;11.566;2023-04-01T01:33:13;1.6;;;0.4;;
26824;SDS011;14402;48.178;11.566;2023-04-01T01:33:46;1.6;;;0.4;;
26824;SDS011;14402;48.178;11.566;2023-04-01T01:34:14;1.5;;;0.4;;
26824;SDS011;14402;48.178;11.566;2023-04-01T01:34:43;1.4;;;0.3;;
26824;SDS011;14402;48.178;11.566;2023-04-01T01:35:14;1.4;;;0.3;;
26824;SDS011;14402;48.178;11.566;2023-04-01T01:35:43;1.4;;;0.3;;
26824;SDS011;14402;48.178;11.566;2023-04-01T01:36:12;1.4;;;0.4;;
26824;SDS011;14402;48.178;11.566;2023-04-01T01:36:42;1.4;;;0.5;;
26824;SDS011;14402;48.178;11.566;2023-04-01T01:37:13;1.4;;;0.5;;
26824;SDS011;14402;48.178;11.566;2023-04-01T01:37:43;1.4;;;0.5;;
26824;SDS011;14402;48.178;11.566;2023-04-01T01:38:13;1.4;;;0.5;;
26824;SDS011;14402;48.178;11.566;2023-04-01T01:38:43;1.4;;;0.5;;
26824;SDS011;14402;48.178;11.566;2023-04-01T01:39:13;1.4;;;0.5;;
26824;SDS011;14402;48.178;11.566;2023-04-01T01:39:44;1.4;;;0.5;;
26824;SDS011;14402;48.178;11.566;2023-04-01T01:40:13;1.6;;;0.4;;
26824;SDS011;14402;48.178;11.566;2023-04-01T01:40:44;1.8;;;0.4;;
26824;SDS011;14402;48.178;11.566;2023-04-01T01:41:13;1.8;;;0.4;;
26824;SDS011;14402;48.178;11.566;2023-04-01T01:41:43;1.8;;;0.4;;
26824;SDS011;14402;48.178;11.566;2023-04-01T01:42:14;1.5;;;0.4;;
26824;SDS011;14402;48.178;11.566;2023-04-01T01:42:45;1.2;;;0.5;;
26824;SDS011;14402;48.178;11.566;2023-04-01T01:43:14;1.2;;;0.5;;
26824;SDS011;14402;48.178;11.566;2023-04-01T01:43:44;1.2;;;0.5;;
26824;SDS011;14402;48.178;11.566;2023-04-01T01:44:14;1.4;;;0.4;;
26824;SDS011;14402;48.178;11.566;2023-04-01T01:44:44;1.5;;;0.4;;
26824;SDS011;14402;48.178;11.566;2023-04-01T01:45:14;1.5;;;0.4;;
26824;SDS011;14402;48.178;11.566;2023-04-01T01:45:44;1.5;;;0.4;;
26824;SDS011;14402;48.178;11.566;2023-04-01T01:46:15;1.5;;;0.5;;
26824;SDS011;14402;48.178;11.566;2023-04-01T01:46:44;1.6;;;0.6;;
26824;SDS011;14402;48.178;11.566;2023-04-01T01:47:14;1.6;;;0.6;;
26824;SDS011;14402;48.178;11.566;2023-04-01T01:47:44;1.6;;;0.6;;
26824;SDS011;14402;48.178;11.566;2023-04-01T01:48:14;1.8;;;0.6;;
26824;SDS011;14402;48.178;11.566;2023-04-01T01:48:44;2.0;;;0.6;;
26824;SDS011;14402;48.178;11.566;2023-04-01T01:49:15;2.0;;;0.6;;
26824;SDS011;14402;48.178;11.566;2023-04-01T01:49:45;2.0;;;0.6;;
26824;SDS011;14402;48.178;11.566;2023-04-01T01:50:15;1.6;;;0.5;;
26824;SDS011;14402;48.178;11.566;2023-04-01T01:50:45;1.3;;;0.4;;
26824;SDS011;14402;48.178;11.566;2023-04-01T01:51:15;1.3;;;0.4;;
26824;SDS011;14402;48.178;11.566;2023-04-01T01:51:45;1.3;;;0.4;;
26824;SDS011;14402;48.178;11.566;2023-04-01T01:52:16;1.5;;;0.4;;
26824;SDS011;14402;48.178;11.566;2023-04-01T01:52:45;1.7;;;0.4;;
26824;SDS011;14402;48.178;11.566;2023-04-01T01:53:15;1.7;;;0.4;;
26824;SDS011;14402;48.178;11.566;2023-04-01T01:53:45;1.7;;;0.4;;
26824;SDS011;14402;48.178;11.566;2023-04-01T01:54:16;1.9;;;0.4;;
26824;SDS011;14402;48.178;11.566;2023-04-01T01:54:47;2.1;;;0.3;;
26824;SDS011;14402;48.178;11.566;2023-04-01T01:55:24;2.1;;;0.3;;
26824;SDS011;14402;48.178;11.566;2023-04-01T01:55:46;2.1;;;0.3;;
26824;SDS011;14402;48.178;11.566;2023-04-01T01:56:16;1.7;;;0.4;;
26824;SDS011;14402;48.178;11.566;2023-04-01T01:56:47;1.3;;;0.4;;
26824;SDS011;14402;48.178;11.566;2023-04-01T01:57:16;1.3;;;0.4;;
26824;SDS011;14402;48.178;11.566;2023-04-01T01:57:46;1.3;;;0.4;;
26824;SDS011;14402;48.178;11.566;2023-04-01T01:58:17;1.1;;;0.4;;
26824;SDS011;14402;48.178;11.566;2023-04-01T01:58:47;0.9;;;0.3;;
26824;SDS011;14402;48.178;11.566;2023-04-01T01:59:17;0.9;;;0.3;;
26824;SDS011;14402;48.178;11.566;2023-04-01T01:59:46;0.9;;;0.3;;
26824;SDS011;14402;48.178;11.566;2023-04-01T02:00:17;1.0;;;0.4;;
26824;SDS011;14402;48.178;11.566;2023-04-01T02:00:48;1.1;;;0.4;;
26824;SDS011;14402;48.178;11.566;2023-04-01T02:01:19;1.1;;;0.4;;
26824;SDS011;14402;48.178;11.566;2023-04-01T02:01:48;1.1;;;0.4;;
26824;SDS011;14402;48.178;11.566;2023-04-01T02:02:17;1.0;;;0.3;;
26824;SDS011;14402;48.178;11.566;2023-04-01T02:02:47;0.8;;;0.2;;
26824;SDS011;14402;48.178;11.566;2023-04-01T02:03:17;0.8;;;0.2;;
26824;SDS011;14402;48.178;11.566;2023-04-01T02:03:47;0.8;;;0.2;;
26824;SDS011;14402;48.178;11.566;2023-04-01T02:04:17;0.9;;;0.2;;
26824;SDS011;14402;48.178;11.566;2023-04-01T02:04:47;1.0;;;0.3;;
26824;SDS011;14402;48.178;11.566;2023-04-01T02:05:19;1.0;;;0.3;;
26824;SDS011;14402;48.178;11.566;2023-04-01T02:05:48;1.0;;;0.3;;
26824;SDS011;14402;48.178;11.566;2023-04-01T02:06:18;1.2;;;0.3;;
26824;SDS011;14402;48.178;11.566;2023-04-01T02:06:49;1.5;;;0.3;;
26824;SDS011;14402;48.178;11.566;2023-04-01T02:07:19;1.5;;;0.3;;
26824;SDS011;14402;48.178;11.566;2023-04-01T02:07:49;1.5;;;0.3;;
26824;SDS011;14402;48.178;11.566;2023-04-01T02:08:20;1.5;;;0.4;;
26824;SDS011;14402;48.178;11.566;2023-04-01T02:08:49;1.4;;;0.4;;
26824;SDS011;14402;48.178;11.566;2023-04-01T02:09:18;1.4;;;0.4;;
26824;SDS011;14402;48.178;11.566;2023-04-01T02:09:48;1.4;;;0.4;;
26824;SDS011;14402;48.178;11.566;2023-04-01T02:10:18;1.5;;;0.4;;
26824;SDS011;14402;48.178;11.566;2023-04-01T02:10:50;1.6;;;0.3;;
26824;SDS011;14402;48.178;11.566;2023-04-01T02:11:19;1.6;;;0.3;;
26824;SDS011;14402;48.178;11.566;2023-04-01T02:11:49;1.6;;;0.3;;
26824;SDS011;14402;48.178;11.566;2023-04-01T02:12:19;1.1;;;0.2;;
26824;SDS011;14402;48.178;11.566;2023-04-01T02:12:49;0.6;;;0.2;;
26824;SDS011;14402;48.178;11.566;2023-04-01T02:13:21;0.6;;;0.2;;
26824;SDS011;14402;48.178;11.566;2023-04-01T02:13:50;0.6;;;0.2;;
26824;SDS011;14402;48.178;11.566;2023-04-01T02:14:20;0.8;;;0.3;;
26824;SDS011;14402;48.178;11.566;2023-04-01T02:14:50;1.0;;;0.4;;
26824;SDS011;14402;48.178;11.566;2023-04-01T02:15:19;1.0;;;0.4;;
26824;SDS011;14402;48.178;11.566;2023-04-01T02:15:49;1.0;;;0.4;;
26824;SDS011;14402;48.178;11.566;2023-04-01T02:16:20;1.1;;;0.4;;
26824;SDS011;14402;48.178;11.566;2023-04-01T02:16:51;1.3;;;0.3;;
26824;SDS011;14402;48.178;11.566;2023-04-01T02:17:21;1.3;;;0.3;;
26824;SDS011;14402;48.178;11.566;2023-04-01T02:17:50;1.3;;;0.3;;
26824;SDS011;14402;48.178;11.566;2023-04-01T02:18:20;1.0;;;0.3;;
26824;SDS011;14402;48.178;11.566;2023-04-01T02:18:50;0.7;;;0.3;;
26824;SDS011;14402;48.178;11.566;2023-04-01T02:19:20;0.7;;;0.3;;
26824;SDS011;14402;48.178;11.566;2023-04-01T02:19:51;0.7;;;0.3;;
26824;SDS011;14402;48.178;11.566;2023-04-01T02:20:21;0.9;;;0.3;;
26824;SDS011;14402;48.178;11.566;2023-04-01T02:20:50;1.0;;;0.3;;
26824;SDS011;14402;48.178;11.566;2023-04-01T02:21:21;1.0;;;0.3;;
26824;SDS011;14402;48.178;11.566;2023-04-01T02:21:51;1.0;;;0.3;;
26824;SDS011;14402;48.178;11.566;2023-04-01T02:22:21;1.4;;;0.4;;
26824;SDS011;14402;48.178;11.566;2023-04-01T02:22:51;1.8;;;0.5;;
26824;SDS011;14402;48.178;11.566;2023-04-01T02:23:21;1.8;;;0.5;;
26824;SDS011;14402;48.178;11.566;2023-04-01T02:23:51;1.8;;;0.5;;
26824;SDS011;14402;48.178;11.566;2023-04-01T02:24:21;1.4;;;0.4;;
26824;SDS011;14402;48.178;11.566;2023-04-01T02:24:52;1.0;;;0.3;;
26824;SDS011;14402;48.178;11.566;2023-04-01T02:25:22;1.0;;;0.3;;
26824;SDS011;14402;48.178;11.566;2023-04-01T02:25:51;1.0;;;0.3;;
26824;SDS011;14402;48.178;11.566;2023-04-01T02:26:21;1.4;;;0.4;;
26824;SDS011;14402;48.178;11.566;2023-04-01T02:26:51;1.7;;;0.5;;
26824;SDS011;14402;48.178;11.566;2023-04-01T02:27:21;1.7;;;0.5;;
26824;SDS011;14402;48.178;11.566;2023-04-01T02:27:52;1.7;;;0.5;;
26824;SDS011;14402;48.178;11.566;2023-04-01T02:28:22;1.5;;;0.3;;
26824;SDS011;14402;48.178;11.566;2023-04-01T02:28:52;1.3;;;0.2;;
26824;SDS011;14402;48.178;11.566;2023-04-01T02:29:22;1.3;;;0.2;;
26824;SDS011;14402;48.178;11.566;2023-04-01T02:29:52;1.3;;;0.2;;
26824;SDS011;14402;48.178;11.566;2023-04-01T02:30:22;0.9;;;0.2;;
26824;SDS011;14402;48.178;11.566;2023-04-01T02:30:52;0.6;;;0.2;;
26824;SDS011;14402;48.178;11.566;2023-04-01T02:31:22;0.6;;;0.2;;
26824;SDS011;14402;48.178;11.566;2023-04-01T02:31:53;0.6;;;0.2;;
26824;SDS011;14402;48.178;11.566;2023-04-01T02:32:22;0.6;;;0.2;;
26824;SDS011;14402;48.178;11.566;2023-04-01T02:32:52;0.5;;;0.3;;
26824;SDS011;14402;48.178;11.566;2023-04-01T02:33:23;0.5;;;0.3;;
26824;SDS011;14402;48.178;11.566;2023-04-01T02:33:53;0.5;;;0.3;;
26824;SDS011;14402;48.178;11.566;2023-04-01T02:34:23;0.6;;;0.2;;
26824;SDS011;14402;48.178;11.566;2023-04-01T02:34:53;0.7;;;0.2;;
26824;SDS011;14402;48.178;11.566;2023-04-01T02:35:23;0.7;;;0.2;;
26824;SDS011;14402;48.178;11.566;2023-04-01T02:35:53;0.7;;;0.2;;
26824;SDS011;14402;48.178;11.566;2023-04-01T02:36:23;0.6;;;0.2;;
26824;SDS011;14402;48.178;11.566;2023-04-01T02:36:53;0.5;;;0.2;;
26824;SDS011;14402;48.178;11.566;2023-04-01T02:37:23;0.5;;;0.2;;
26824;SDS011;14402;48.178;11.566;2023-04-01T02:37:54;0.5;;;0.2;;
26824;SDS011;14402;48.178;11.566;2023-04-01T02:38:24;0.8;;;0.2;;
26824;SDS011;14402;48.178;11.566;2023-04-01T02:38:54;1.0;;;0.2;;
26824;SDS011;14402;48.178;11.566;2023-04-01T02:39:24;1.0;;;0.2;;
26824;SDS011;14402;48.178;11.566;2023-04-01T02:39:54;1.0;;;0.2;;
26824;SDS011;14402;48.178;11.566;2023-04-01T02:40:24;1.8;;;0.2;;
26824;SDS011;14402;48.178;11.566;2023-04-01T02:40:56;2.5;;;0.3;;
26824;SDS011;14402;48.178;11.566;2023-04-01T02:41:24;2.5;;;0.3;;
26824;SDS011;14402;48.178;11.566;2023-04-01T02:41:54;2.5;;;0.3;;
26824;SDS011;14402;48.178;11.566;2023-04-01T02:42:24;1.7;;;0.3;;
26824;SDS011;14402;48.178;11.566;2023-04-01T02:42:54;0.9;;;0.3;;
26824;SDS011;14402;48.178;11.566;2023-04-01T02:43:24;0.9;;;0.3;;
26824;SDS011;14402;48.178;11.566;2023-04-01T02:43:55;0.9;;;0.3;;
26824;SDS011;14402;48.178;11.566;2023-04-01T02:44:25;0.9;;;0.2;;
26824;SDS011;14402;48.178;11.566;2023-04-01T02:44:55;0.8;;;0.2;;
26824;SDS011;14402;48.178;11.566;2023-04-01T02:45:25;0.8;;;0.2;;
26824;SDS011;14402;48.178;11.566;2023-04-01T02:45:55;0.8;;;0.2;;
26824;SDS011;14402;48.178;11.566;2023-04-01T02:46:25;1.0;;;0.2;;
26824;SDS011;14402;48.178;11.566;2023-04-01T02:46:55;1.3;;;0.3;;
26824;SDS011;14402;48.178;11.566;2023-04-01T02:47:25;1.3;;;0.3;;
26824;SDS011;14402;48.178;11.566;2023-04-01T02:47:55;1.3;;;0.3;;
26824;SDS011;14402;48.178;11.566;2023-04-01T02:48:25;1.3;;;0.2;;
26824;SDS011;14402;48.178;11.566;2023-04-01T02:48:55;1.3;;;0.2;;
26824;SDS011;14402;48.178;11.566;2023-04-01T02:49:26;1.3;;;0.2;;
26824;SDS011;14402;48.178;11.566;2023-04-01T02:49:56;1.3;;;0.2;;
26824;SDS011;14402;48.178;11.566;2023-04-01T02:50:26;1.2;;;0.2;;
26824;SDS011;14402;48.178;11.566;2023-04-01T02:50:56;1.1;;;0.3;;
26824;SDS011;14402;48.178;11.566;2023-04-01T02:51:26;1.1;;;0.3;;
26824;SDS011;14402;48.178;11.566;2023-04-01T02:51:56;1.1;;;0.3;;
26824;SDS011;14402;48.178;11.566;2023-04-01T02:52:26;0.9;;;0.3;;
26824;SDS011;14402;48.178;11.566;2023-04-01T02:52:56;0.7;;;0.3;;
26824;SDS011;14402;48.178;11.566;2023-04-01T02:53:26;0.7;;;0.3;;
26824;SDS011;14402;48.178;11.566;2023-04-01T02:53:56;0.7;;;0.3;;
26824;SDS011;14402;48.178;11.566;2023-04-01T02:54:26;1.0;;;0.3;;
26824;SDS011;14402;48.178;11.566;2023-04-01T02:54:57;1.2;;;0.3;;
26824;SDS011;14402;48.178;11.566;2023-04-01T02:55:27;1.2;;;0.3;;
26824;SDS011;14402;48.178;11.566;2023-04-01T02:55:57;1.2;;;0.3;;
26824;SDS011;14402;48.178;11.566;2023-04-01T02:56:27;0.9;;;0.2;;
26824;SDS011;14402;48.178;11.566;2023-04-01T02:56:57;0.5;;;0.2;;
26824;SDS011;14402;48.178;11.566;2023-04-01T02:57:27;0.5;;;0.2;;
26824;SDS011;14402;48.178;11.566;2023-04-01T02:57:57;0.5;;;0.2;;
26824;SDS011;14402;48.178;11.566;2023-04-01T02:58:27;0.8;;;0.2;;
26824;SDS011;14402;48.178;11.566;2023-04-01T02:58:57;1.0;;;0.2;;
26824;SDS011;14402;48.178;11.566;2023-04-01T02:59:27;1.0;;;0.2;;
26824;SDS011;14402;48.178;11.566;2023-04-01T02:59:57;1.0;;;0.2;;
26824;SDS011;14402;48.178;11.566;2023-04-01T03:00:28;0.9;;;0.2;;
26824;SDS011;14402;48.178;11.566;2023-04-01T03:00:57;0.9;;;0.2;;
26824;SDS011;14402;48.178;11.566;2023-04-01T03:01:28;0.9;;;0.2;;
26824;SDS011;14402;48.178;11.566;2023-04-01T03:01:58;0.9;;;0.2;;
26824;SDS011;14402;48.178;11.566;2023-04-01T03:02:35;0.6;;;0.2;;
26824;SDS011;14402;48.178;11.566;2023-04-01T03:02:58;0.3;;;0.2;;
26824;SDS011;14402;48.178;11.566;2023-04-01T03:03:28;0.3;;;0.2;;
26824;SDS011;14402;48.178;11.566;2023-04-01T03:03:58;0.3;;;0.2;;
26824;SDS011;14402;48.178;11.566;2023-04-01T03:04:28;0.3;;;0.2;;
26824;SDS011;14402;48.178;11.566;2023-04-01T03:04:58;0.3;;;0.2;;
26824;SDS011;14402;48.178;11.566;2023-04-01T03:05:28;0.3;;;0.2;;
26824;SDS011;14402;48.178;11.566;2023-04-01T03:06:03;0.3;;;0.2;;
26824;SDS011;14402;48.178;11.566;2023-04-01T03:06:28;0.4;;;0.2;;
26824;SDS011;14402;48.178;11.566;2023-04-01T03:06:59;0.5;;;0.2;;
26824;SDS011;14402;48.178;11.566;2023-04-01T03:07:29;0.5;;;0.2;;